N420HA LEAL-EGGP
Flight info
| Callsign | N420HA |
|---|---|
| Flight time | N/A |
| Altitude | 43000 |
| Route | MITOS N608 COMPI Y90 USKAR N863 GIROM DCT AGN DCT SECHE DCT UVELI DCT CNA DCT MANAK DCT MUREL DCT NOZHU DCT SHIRI DCT TOJAQ DCT EPACE DCT ACCOP P16 PEPZE |
| Aircraft | HDJT/L-SABDGRWY/H |
Departure
| Time | 2026-05-05 15:32 |
|---|---|
| Airport | Alicante-Elche Miguel Hernández Airport (LEAL) |
Arrival
| Time | N/A |
|---|---|
| Airport | Liverpool John Lennon Airport (EGGP) |
| Time | Latitude | Longitude | Altitude | Speed | Heading |
|---|---|---|---|---|---|
| 2026-05-05 15:17 | 38.28714 | -0.56522 | 113 ft | 0 kts | 282° |
| 2026-05-05 15:28 | 38.28715 | -0.56527 | 116 ft | 3 kts | 275° |
| 2026-05-05 15:28 | 38.28665 | -0.56565 | 116 ft | 14 kts | 200° |
| 2026-05-05 15:28 | 38.28553 | -0.56607 | 116 ft | 19 kts | 190° |
| 2026-05-05 15:29 | 38.28513 | -0.56673 | 117 ft | 13 kts | 283° |
| 2026-05-05 15:29 | 38.28532 | -0.56800 | 122 ft | 16 kts | 280° |
| 2026-05-05 15:29 | 38.28551 | -0.56950 | 130 ft | 18 kts | 282° |
| 2026-05-05 15:29 | 38.28578 | -0.57122 | 137 ft | 21 kts | 279° |
| 2026-05-05 15:30 | 38.28603 | -0.57300 | 144 ft | 18 kts | 281° |
| 2026-05-05 15:30 | 38.28592 | -0.57417 | 148 ft | 12 kts | 205° |
| 2026-05-05 15:30 | 38.28509 | -0.57440 | 151 ft | 12 kts | 189° |
| 2026-05-05 15:30 | 38.28439 | -0.57402 | 148 ft | 13 kts | 99° |
| 2026-05-05 15:31 | 38.28432 | -0.57355 | 146 ft | 0 kts | 100° |
| 2026-05-05 15:32 | 38.28401 | -0.57148 | 137 ft | 60 kts | 99° |
| 2026-05-05 15:32 | 38.28091 | -0.56458 | 115 ft | 118 kts | 147° |
| 2026-05-05 15:32 | 38.27525 | -0.55615 | 556 ft | 134 kts | 117° |
| 2026-05-05 15:32 | 38.27400 | -0.54369 | 921 ft | 159 kts | 80° |
| 2026-05-05 15:33 | 38.27890 | -0.53033 | 1377 ft | 172 kts | 61° |
| 2026-05-05 15:33 | 38.28293 | -0.51615 | 2050 ft | 170 kts | 92° |
| 2026-05-05 15:33 | 38.28040 | -0.50176 | 2595 ft | 171 kts | 111° |
| 2026-05-05 15:33 | 38.28126 | -0.48521 | 3065 ft | 210 kts | 68° |
| 2026-05-05 15:34 | 38.29044 | -0.46961 | 3781 ft | 228 kts | 49° |
| 2026-05-05 15:34 | 38.30047 | -0.45347 | 4668 ft | 238 kts | 53° |